Time,TemperatureF,DewpointF,PressureIn,WindDirection,WindDirectionDegrees,WindSpeedMPH,WindSpeedGustMPH,Humidity,HourlyPrecipIn,Conditions,Clouds,dailyrainin,SoftwareType,DateUTC
2013-02-10 00:09:00,42.1,25.3,30.07,West,270,0.0,-999.0,51,-99.99,,,0.00,Acu-Link.com,2013-02-10 05:09:00,
2013-02-10 00:24:00,43.0,25.6,30.07,WSW,247,2.2,-999.0,50,-99.99,,,0.00,Acu-Link.com,2013-02-10 05:24:00,
2013-02-10 00:39:00,43.5,25.1,30.07,WSW,247,2.2,-999.0,48,-99.99,,,0.00,Acu-Link.com,2013-02-10 05:39:00,
2013-02-10 00:54:00,43.7,25.3,30.07,SW,225,2.2,-999.0,48,-99.99,,,0.00,Acu-Link.com,2013-02-10 05:54:00,
2013-02-10 01:09:00,44.2,23.7,30.06,WNW,292,2.2,-999.0,44,-99.99,,,0.00,Acu-Link.com,2013-02-10 06:09:00,
2013-02-10 01:25:00,43.9,24.5,30.07,West,270,0.0,-999.0,46,-99.99,,,0.00,Acu-Link.com,2013-02-10 06:25:00,
2013-02-10 01:40:00,43.9,22.9,30.06,West,270,3.8,-999.0,43,-99.99,,,0.00,Acu-Link.com,2013-02-10 06:40:00,
2013-02-10 01:55:00,43.7,25.3,30.07,West,270,2.7,-999.0,48,-99.99,,,0.00,Acu-Link.com,2013-02-10 06:55:00,
2013-02-10 02:10:00,44.1,23.6,30.07,West,270,2.2,-999.0,44,-99.99,,,0.00,Acu-Link.com,2013-02-10 07:10:00,
2013-02-10 02:25:00,44.8,25.3,30.07,West,270,3.8,-999.0,46,-99.99,,,0.00,Acu-Link.com,2013-02-10 07:25:00,
2013-02-10 02:41:00,44.2,24.8,30.07,NNW,337,1.6,-999.0,46,-99.99,,,0.00,Acu-Link.com,2013-02-10 07:41:00,
2013-02-10 02:56:00,44.4,25.5,30.07,SW,225,2.7,-999.0,47,-99.99,,,0.00,Acu-Link.com,2013-02-10 07:56:00,
2013-02-10 03:11:00,44.6,26.1,30.06,SSW,202,2.2,-999.0,48,-99.99,,,0.00,Acu-Link.com,2013-02-10 08:11:00,
2013-02-10 03:26:00,44.8,27.3,30.05,NW,315,2.7,-999.0,50,-99.99,,,0.00,Acu-Link.com,2013-02-10 08:26:00,
2013-02-10 03:42:00,44.8,27.3,30.06,West,270,2.7,-999.0,50,-99.99,,,0.00,Acu-Link.com,2013-02-10 08:42:00,
2013-02-10 03:57:00,44.6,27.6,30.07,WNW,292,2.2,-999.0,51,-99.99,,,0.00,Acu-Link.com,2013-02-10 08:57:00,
2013-02-10 04:19:00,44.6,27.6,30.08,West,270,2.7,-999.0,51,-99.99,,,0.00,Acu-Link.com,2013-02-10 09:19:00,
2013-02-10 04:34:00,44.4,27.9,30.07,West,270,0.0,-999.0,52,-99.99,,,0.00,Acu-Link.com,2013-02-10 09:34:00,
2013-02-10 04:49:00,43.7,24.3,30.07,NNW,337,3.8,-999.0,46,-99.99,,,0.00,Acu-Link.com,2013-02-10 09:49:00,
2013-02-10 05:04:00,43.9,25.5,30.07,ESE,112,0.0,-999.0,48,-99.99,,,0.00,Acu-Link.com,2013-02-10 10:04:00,
2013-02-10 05:19:00,43.3,25.0,30.08,West,270,1.1,-999.0,48,-99.99,,,0.00,Acu-Link.com,2013-02-10 10:19:00,
2013-02-10 05:35:00,42.6,25.3,30.08,SW,225,2.2,-999.0,50,-99.99,,,0.00,Acu-Link.com,2013-02-10 10:35:00,
2013-02-10 05:50:00,42.3,24.5,30.07,NNW,337,0.0,-999.0,49,-99.99,,,0.00,Acu-Link.com,2013-02-10 10:50:00,
2013-02-10 06:05:00,42.4,24.2,30.07,ENE,67,2.7,-999.0,48,-99.99,,,0.00,Acu-Link.com,2013-02-10 11:05:00,
2013-02-10 06:20:00,42.4,24.2,30.08,SW,225,1.1,-999.0,48,-99.99,,,0.00,Acu-Link.com,2013-02-10 11:20:00,
2013-02-10 06:36:00,42.3,24.5,30.08,NNW,337,2.7,-999.0,49,-99.99,,,0.00,Acu-Link.com,2013-02-10 11:36:00,
2013-02-10 06:51:00,42.1,24.8,30.08,South,180,2.7,-999.0,50,-99.99,,,0.00,Acu-Link.com,2013-02-10 11:51:00,
2013-02-10 07:06:00,41.7,24.9,30.08,NNW,337,0.0,-999.0,51,-99.99,,,0.00,Acu-Link.com,2013-02-10 12:06:00,
2013-02-10 07:21:00,40.8,25.5,30.08,West,270,2.2,-999.0,54,-99.99,,,0.00,Acu-Link.com,2013-02-10 12:21:00,
2013-02-10 07:36:00,40.8,26.4,30.08,WSW,247,4.3,-999.0,56,-99.99,,,0.00,Acu-Link.com,2013-02-10 12:36:00,
2013-02-10 07:52:00,41.0,26.1,30.08,WNW,292,0.0,-999.0,55,-99.99,,,0.00,Acu-Link.com,2013-02-10 12:52:00,
2013-02-10 08:07:00,41.0,26.1,30.08,West,270,0.0,-999.0,55,-99.99,,,0.00,Acu-Link.com,2013-02-10 13:07:00,
2013-02-10 08:22:00,43.2,26.7,30.07,West,270,2.7,-999.0,52,-99.99,,,0.00,Acu-Link.com,2013-02-10 13:22:00,
2013-02-10 08:37:00,45.7,26.6,30.08,NE,45,2.2,-999.0,47,-99.99,,,0.00,Acu-Link.com,2013-02-10 13:37:00,
2013-02-10 08:52:00,45.1,27.1,30.09,NE,45,4.3,-999.0,49,-99.99,,,0.00,Acu-Link.com,2013-02-10 13:52:00,
2013-02-10 09:08:00,46.9,27.3,30.10,North,0,1.6,-999.0,46,-99.99,,,0.00,Acu-Link.com,2013-02-10 14:08:00,
2013-02-10 09:23:00,46.4,26.8,30.10,ESE,112,2.7,-999.0,46,-99.99,,,0.00,Acu-Link.com,2013-02-10 14:23:00,
2013-02-10 09:38:00,46.6,25.9,30.11,SSE,157,2.7,-999.0,44,-99.99,,,0.00,Acu-Link.com,2013-02-10 14:38:00,
2013-02-10 09:53:00,45.9,25.7,30.11,South,180,0.0,-999.0,45,-99.99,,,0.00,Acu-Link.com,2013-02-10 14:53:00,
2013-02-10 10:08:00,46.6,25.9,30.12,NNE,22,2.2,-999.0,44,-99.99,,,0.00,Acu-Link.com,2013-02-10 15:08:00,
2013-02-10 10:24:00,47.5,26.7,30.11,SW,225,2.2,-999.0,44,-99.99,,,0.00,Acu-Link.com,2013-02-10 15:24:00,
2013-02-10 10:39:00,47.5,26.7,30.10,North,0,2.7,-999.0,44,-99.99,,,0.00,Acu-Link.com,2013-02-10 15:39:00,
2013-02-10 10:54:00,46.9,26.7,30.10,South,180,2.7,-999.0,45,-99.99,,,0.00,Acu-Link.com,2013-02-10 15:54:00,
2013-02-10 11:09:00,47.5,26.1,30.10,SSE,157,5.1,-999.0,43,-99.99,,,0.00,Acu-Link.com,2013-02-10 16:09:00,
2013-02-10 11:25:00,49.8,27.1,30.07,ESE,112,4.7,-999.0,41,-99.99,,,0.00,Acu-Link.com,2013-02-10 16:25:00,
2013-02-10 11:40:00,50.4,25.7,30.07,West,270,2.7,-999.0,38,-99.99,,,0.00,Acu-Link.com,2013-02-10 16:40:00,
2013-02-10 11:55:00,50.2,25.6,30.10,ESE,112,3.8,-999.0,38,-99.99,,,0.00,Acu-Link.com,2013-02-10 16:55:00,
2013-02-10 12:10:00,50.9,24.2,30.08,NNW,337,6.7,-999.0,35,-99.99,,,0.00,Acu-Link.com,2013-02-10 17:10:00,
2013-02-10 12:25:00,51.1,25.7,30.05,East,90,4.7,-999.0,37,-99.99,,,0.00,Acu-Link.com,2013-02-10 17:25:00,
2013-02-10 12:41:00,50.9,24.2,30.02,ESE,112,3.8,-999.0,35,-99.99,,,0.00,Acu-Link.com,2013-02-10 17:41:00,
2013-02-10 12:56:00,52.2,23.9,30.00,West,270,3.1,-999.0,33,-99.99,,,0.00,Acu-Link.com,2013-02-10 17:56:00,
2013-02-10 13:11:00,51.8,24.3,29.99,SW,225,3.8,-999.0,34,-99.99,,,0.00,Acu-Link.com,2013-02-10 18:11:00,
2013-02-10 13:26:00,53.2,27.6,30.00,SSW,202,2.7,-999.0,37,-99.99,,,0.00,Acu-Link.com,2013-02-10 18:26:00,
2013-02-10 13:41:00,52.2,29.2,30.02,SW,225,4.7,-999.0,41,-99.99,,,0.00,Acu-Link.com,2013-02-10 18:41:00,
2013-02-10 13:57:00,52.3,31.6,30.01,NE,45,4.3,-999.0,45,-99.99,,,0.00,Acu-Link.com,2013-02-10 18:57:00,
2013-02-10 14:12:00,53.2,34.1,29.99,SSE,157,4.7,-999.0,48,-99.99,,,0.00,Acu-Link.com,2013-02-10 19:12:00,
2013-02-10 14:27:00,53.1,35.9,29.96,SSW,202,4.7,-999.0,52,-99.99,,,0.00,Acu-Link.com,2013-02-10 19:27:00,
2013-02-10 14:42:00,52.5,36.4,29.96,SW,225,3.8,-999.0,54,-99.99,,,0.00,Acu-Link.com,2013-02-10 19:42:00,
2013-02-10 14:57:00,51.6,36.9,29.97,East,90,5.1,-999.0,57,-99.99,,,0.00,Acu-Link.com,2013-02-10 19:57:00,
2013-02-10 15:13:00,50.9,36.7,29.96,South,180,4.7,-999.0,58,-99.99,,,0.00,Acu-Link.com,2013-02-10 20:13:00,
2013-02-10 15:28:00,49.1,39.4,29.96,West,270,3.1,-999.0,69,-99.99,,,0.00,Acu-Link.com,2013-02-10 20:28:00,
2013-02-10 15:43:00,46.9,39.4,29.95,WSW,247,3.1,-999.0,75,-99.99,,,0.00,Acu-Link.com,2013-02-10 20:43:00,
2013-02-10 15:58:00,46.8,37.9,29.94,WNW,292,1.6,-999.0,71,-99.99,,,0.00,Acu-Link.com,2013-02-10 20:58:00,
2013-02-10 16:14:00,45.9,38.4,29.94,SSW,202,2.7,-999.0,75,-99.99,,,0.01,Acu-Link.com,2013-02-10 21:14:00,
2013-02-10 16:29:00,44.6,39.8,29.94,SW,225,3.8,-999.0,83,-99.99,,,0.01,Acu-Link.com,2013-02-10 21:29:00,
2013-02-10 16:44:00,43.7,40.4,29.96,WSW,247,3.8,-999.0,88,-99.99,,,0.07,Acu-Link.com,2013-02-10 21:44:00,
2013-02-10 16:59:00,43.5,40.8,29.95,SSE,157,2.2,-999.0,90,-99.99,,,0.11,Acu-Link.com,2013-02-10 21:59:00,
2013-02-10 17:14:00,43.3,41.2,29.94,SSE,157,1.1,-999.0,92,-99.99,,,0.15,Acu-Link.com,2013-02-10 22:14:00,
2013-02-10 17:30:00,43.0,41.4,29.96,WSW,247,1.1,-999.0,94,-99.99,,,0.19,Acu-Link.com,2013-02-10 22:30:00,